Clyde, North Carolina
Current Conditions -  °F | °C
As of 7:14 PM on Sunday 23 Nov 2014 (Local Time) from KAVL Reporting Station
Moderate Rain Moderate Rain  
Wind Chill: 44°   Ceiling: 400
Heat Index: 48°   Visibility: 4mi
Dew Point: 47°   Wind: 9mph
Humidity: 96%   Direction: 240°WSW
Pressure: 29.77"   Gusts: NA
Location:  35.53°N, 82.91°W
Report Text: KAVL 240014Z 24008KT 4SM RA BR BKN004 OVC010 09/08 A2977 RMK AO2 P0006 T00890083
Loading
Personal Weather Stations






























Interactive Weather Map New forecast layout! Learn more

10-Day Weather Forecast

Advertisements
Track Severe Weather on mobile